createdAt,value
2023-01-18T04:39:47.608Z,0.60
2023-01-18T04:50:23.487Z,0.70
2023-01-18T05:01:03.799Z,0.70
2023-01-18T05:11:39.420Z,0.60
2023-01-18T05:22:15.307Z,0.60
2023-01-18T05:32:51.092Z,0.50
2023-01-18T05:43:28.363Z,0.40
2023-01-18T05:54:03.976Z,0.30
2023-01-18T06:04:39.520Z,0.40
2023-01-18T06:15:15.578Z,0.30
2023-01-18T06:25:51.279Z,0.20
2023-01-18T06:36:29.281Z,0.30
2023-01-18T06:47:05.358Z,0.40
2023-01-18T06:57:41.444Z,0.40
2023-01-18T07:08:17.584Z,0.30
2023-01-18T07:18:53.448Z,0.40
2023-01-18T07:29:29.153Z,0.30
2023-01-18T07:40:05.322Z,0.10
2023-01-18T07:50:41.325Z,0.20
2023-01-18T08:01:20.109Z,0.40
2023-01-18T08:11:56.067Z,0.60
2023-01-18T08:22:32.490Z,0.70
2023-01-18T08:33:08.346Z,0.90
2023-01-18T08:43:45.179Z,1.00
2023-01-18T08:54:20.515Z,1.10
2023-01-18T09:04:56.491Z,1.50
2023-01-18T09:15:32.635Z,1.80
2023-01-18T09:26:16.796Z,1.90
2023-01-18T09:36:52.771Z,2.70
2023-01-18T09:47:36.682Z,2.60
2023-01-18T09:58:53.424Z,2.50
2023-01-18T10:09:34.377Z,2.50
2023-01-18T10:20:40.913Z,3.10
2023-01-18T10:31:44.546Z,3.50
2023-01-18T10:42:47.858Z,4.00
2023-01-18T10:53:23.280Z,3.60
2023-01-18T11:04:07.461Z,4.70
2023-01-18T11:14:43.088Z,6.50
2023-01-18T11:25:19.115Z,5.30
2023-01-18T11:35:59.040Z,5.60
2023-01-18T11:46:42.550Z,5.00
2023-01-18T11:57:18.340Z,4.70
2023-01-18T12:08:18.983Z,4.40
2023-01-18T12:19:22.440Z,4.30
2023-01-18T12:30:37.065Z,4.40
2023-01-18T12:41:44.077Z,4.30
2023-01-18T12:52:22.284Z,4.20
2023-01-18T13:02:58.053Z,4.20
2023-01-18T13:13:35.717Z,4.00
2023-01-18T13:24:31.135Z,3.70
2023-01-18T13:35:33.145Z,3.80
2023-01-18T13:46:09.683Z,4.00
2023-01-18T13:57:09.502Z,3.70
2023-01-18T14:07:52.242Z,3.80
2023-01-18T14:18:30.160Z,3.60
2023-01-18T14:29:07.859Z,3.40
2023-01-18T14:39:43.468Z,3.30
2023-01-18T14:50:21.155Z,3.10
2023-01-18T15:00:57.195Z,3.00
2023-01-18T15:11:36.237Z,2.70
2023-01-18T15:22:14.642Z,2.50
2023-01-18T15:32:55.691Z,2.40
2023-01-18T15:43:34.988Z,2.00
2023-01-18T15:54:19.783Z,1.60
2023-01-18T16:05:10.156Z,1.10
2023-01-18T16:15:47.207Z,0.60
2023-01-18T16:26:29.144Z,0.20
2023-01-18T16:37:05.196Z,0.10
2023-01-18T16:47:40.703Z,0.00
2023-01-18T16:58:18.622Z,0.00
2023-01-18T17:08:54.237Z,-0.40
2023-01-18T17:19:29.617Z,-0.50
2023-01-18T17:30:06.647Z,-0.80
2023-01-18T17:40:44.346Z,-1.00
2023-01-18T17:51:20.915Z,-1.30
2023-01-18T18:01:56.313Z,-1.50
2023-01-18T18:12:33.782Z,-1.60
2023-01-18T18:23:10.624Z,-1.60
2023-01-18T18:33:46.437Z,-1.90
2023-01-18T18:44:22.985Z,-2.10
2023-01-18T18:54:58.808Z,-1.80
2023-01-18T19:05:35.776Z,-2.30
2023-01-18T19:16:11.914Z,-2.30
2023-01-18T19:26:47.482Z,-2.40
2023-01-18T19:37:22.982Z,-2.60
2023-01-18T19:48:00.441Z,-2.70
2023-01-18T19:58:37.829Z,-2.70
2023-01-18T20:09:22.049Z,-2.60
2023-01-18T20:19:58.833Z,-2.80
2023-01-18T20:30:34.717Z,-3.10
2023-01-18T20:41:10.796Z,-3.20
2023-01-18T20:51:46.508Z,-3.30
2023-01-18T21:02:22.589Z,-3.30
2023-01-18T21:12:58.706Z,-2.50
2023-01-18T21:23:39.203Z,-1.50
2023-01-18T21:34:14.992Z,-1.30
2023-01-18T21:45:08.854Z,-1.30
2023-01-18T21:55:44.262Z,-1.20
2023-01-18T22:06:20.144Z,-1.10
2023-01-18T22:16:55.918Z,-1.20
2023-01-18T22:27:32.117Z,-1.30
